Time;durP1;ratioP1;P1;durP2;ratioP2;P2;SDS_P1;SDS_P2;PMS_P1;PMS_P2;Temp;Humidity;BMP_temperature;BMP_pressure;BME280_temperature;BME280_humidity;BME280_pressure;Samples;Min_cycle;Max_cycle;Signal;HPM_P1;HPM_P2
2023/11/06 00:00:09;;;;;;;9.52;1.88;;;10.50;99.90;;;10.56;78.08;98406.25;5063727;28;20033;-81
2023/11/06 00:02:36;;;;;;;7.43;1.65;;;10.50;99.90;;;10.54;77.84;98406.53;5065839;28;20499;-81
2023/11/06 00:05:04;;;;;;;8.60;1.77;;;10.60;99.90;;;10.59;77.83;98403.09;4999882;28;20140;-81
2023/11/06 00:07:32;;;;;;;12.65;1.73;;;10.60;99.90;;;10.60;78.35;98402.00;5071987;28;20123;-81
2023/11/06 00:09:59;;;;;;;5.93;1.55;;;10.60;99.90;;;10.64;78.64;98408.44;5063633;28;20104;-81
2023/11/06 00:12:30;;;;;;;7.40;1.58;;;10.60;99.90;;;10.68;78.46;98417.47;5066693;28;20044;-81
2023/11/06 00:14:57;;;;;;;;;;;10.70;99.90;;;10.74;78.29;98410.31;5072963;28;20123;-81
2023/11/06 00:17:26;;;;;;;8.73;1.90;;;10.70;99.90;;;10.69;77.95;98416.44;5077666;28;19928;-81
2023/11/06 00:19:54;;;;;;;8.45;1.73;;;10.70;99.90;;;10.72;78.14;98412.44;5076296;28;20102;-81
2023/11/06 00:22:21;;;;;;;10.43;1.65;;;10.70;99.90;;;10.75;77.81;98414.59;5066674;28;20045;-81
2023/11/06 00:24:48;;;;;;;9.68;1.70;;;10.70;99.90;;;10.71;77.51;98414.31;5024692;28;20040;-81
2023/11/06 00:27:16;;;;;;;12.40;2.20;;;10.70;99.90;;;10.72;77.68;98409.75;5041319;28;20041;-81
2023/11/06 00:29:45;;;;;;;9.40;2.00;;;10.70;99.90;;;10.72;77.72;98420.44;5089779;28;20068;-81
2023/11/06 00:32:12;;;;;;;7.75;1.60;;;10.70;99.90;;;10.75;77.93;98419.91;5063967;28;20074;-81
2023/11/06 00:34:40;;;;;;;8.73;2.38;;;10.70;99.90;;;10.76;77.71;98419.66;5059899;28;20047;-81
2023/11/06 00:37:07;;;;;;;7.03;1.67;;;10.80;99.90;;;10.73;77.83;98430.81;5088518;28;20071;-81
2023/11/06 00:39:35;;;;;;;10.90;1.83;;;10.80;99.90;;;10.78;77.91;98416.72;5078444;28;20472;-81
2023/11/06 00:42:04;;;;;;;11.98;1.73;;;10.80;99.90;;;10.83;77.68;98422.03;5074001;28;20088;-81
2023/11/06 00:44:32;;;;;;;7.30;1.60;;;10.80;99.90;;;10.77;77.75;98420.44;5080132;28;20492;-81
2023/11/06 00:47:01;;;;;;;8.23;1.90;;;10.80;99.90;;;10.75;77.51;98419.91;5056977;28;20072;-81
2023/11/06 00:49:28;;;;;;;10.02;1.70;;;10.80;99.90;;;10.68;77.00;98425.47;5080466;28;20072;-81
2023/11/06 00:51:56;;;;;;;14.98;2.28;;;10.80;99.90;;;10.72;77.02;98429.22;5076590;28;20043;-81
2023/11/06 00:54:23;;;;;;;8.30;1.98;;;10.80;99.90;;;10.76;77.04;98427.63;5062435;28;20032;-81
2023/11/06 00:56:50;;;;;;;7.00;1.70;;;10.80;99.90;;;10.77;77.26;98442.56;5083648;28;20048;-81
2023/11/06 00:59:18;;;;;;;11.85;3.35;;;10.80;99.90;;;10.74;77.15;98448.44;5082293;28;20123;-81
2023/11/06 01:01:45;;;;;;;8.95;2.10;;;10.80;99.90;;;10.79;77.11;98440.47;5067445;28;20044;-81
2023/11/06 01:04:14;;;;;;;9.20;1.73;;;10.80;99.90;;;10.82;77.32;98447.13;5069258;28;20420;-81
2023/11/06 01:06:43;;;;;;;7.97;1.70;;;10.80;99.90;;;10.78;78.08;98454.84;5068023;28;20049;-81
2023/11/06 01:09:11;;;;;;;7.65;1.55;;;10.80;99.90;;;10.77;78.50;98460.44;5080662;28;20037;-81
2023/11/06 01:11:39;;;;;;;9.90;2.28;;;10.80;99.90;;;10.77;78.33;98465.75;5078605;28;20450;-81
2023/11/06 01:14:06;;;;;;;12.90;1.88;;;10.80;99.90;;;10.79;78.81;98458.31;5082332;28;20037;-81
2023/11/06 01:16:34;;;;;;;10.73;1.75;;;10.80;99.90;;;10.78;79.12;98452.19;5071691;28;20048;-81
2023/11/06 01:19:02;;;;;;;9.88;1.98;;;10.80;99.90;;;10.75;79.22;98468.72;5083728;28;20044;-81
2023/11/06 01:21:31;;;;;;;8.18;1.98;;;10.80;99.90;;;10.70;79.81;98483.88;5083217;28;20074;-81
2023/11/06 01:23:59;;;;;;;10.40;2.10;;;10.70;99.90;;;10.67;80.45;98477.19;5066264;28;20565;-81
2023/11/06 01:26:27;;;;;;;7.75;1.60;;;10.70;99.90;;;10.70;80.87;98476.69;5079967;28;20067;-81
2023/11/06 01:28:54;;;;;;;13.07;1.77;;;10.70;99.90;;;10.71;80.82;98474.81;5054323;28;20143;-81
2023/11/06 01:31:21;;;;;;;9.55;1.92;;;10.70;99.90;;;10.60;80.81;98481.19;5060251;28;20067;-81
2023/11/06 01:33:50;;;;;;;6.68;1.65;;;10.60;99.90;;;10.62;81.54;98489.72;5065006;28;20052;-81
2023/11/06 01:36:19;;;;;;;8.52;2.22;;;10.60;99.90;;;10.53;81.49;98495.53;5083255;28;20048;-81
2023/11/06 01:38:47;;;;;;;11.45;1.67;;;10.60;99.90;;;10.58;81.65;98495.53;5074125;28;20135;-81
2023/11/06 01:41:15;;;;;;;10.48;1.60;;;10.60;99.90;;;10.65;81.55;98494.53;5081426;28;20120;-81
2023/11/06 01:43:43;;;;;;;8.90;1.60;;;10.60;99.90;;;10.68;81.72;98499.31;5062505;28;20048;-81
2023/11/06 01:46:11;;;;;;;8.27;2.05;;;10.60;99.90;;;10.72;81.81;98501.22;5077715;28;20040;-81
2023/11/06 01:48:41;;;;;;;10.05;2.00;;;10.60;99.90;;;10.67;81.78;98503.06;5064597;28;20052;-81
2023/11/06 01:51:10;;;;;;;6.97;1.70;;;10.60;99.90;;;10.62;81.40;98506.50;5093278;28;20132;-81
2023/11/06 01:53:38;;;;;;;10.57;1.90;;;10.60;99.90;;;10.57;81.69;98509.94;5064298;28;20106;-81
2023/11/06 01:56:08;;;;;;;8.27;1.60;;;10.60;99.90;;;10.65;81.57;98510.53;5061656;28;20053;-81
2023/11/06 01:58:35;;;;;;;8.70;1.60;;;10.60;99.90;;;10.66;81.34;98512.13;5068535;28;20044;-81
2023/11/06 02:01:05;;;;;;;9.23;1.60;;;10.70;99.90;;;10.62;81.49;98516.38;5063850;28;20049;-81
2023/11/06 02:03:33;;;;;;;7.32;1.77;;;10.60;99.90;;;10.64;81.36;98515.06;5025545;28;20439;-81
2023/11/06 02:06:01;;;;;;;8.77;1.67;;;10.60;99.90;;;10.64;81.44;98517.72;5081733;28;20041;-81
2023/11/06 02:08:31;;;;;;;7.03;1.60;;;10.60;99.90;;;10.55;81.56;98516.59;5070287;28;20053;-82
2023/11/06 02:11:00;;;;;;;7.50;1.50;;;10.60;99.90;;;10.51;81.99;98526.19;5064644;28;20036;-82
2023/11/06 02:13:29;;;;;;;8.27;1.85;;;10.60;99.90;;;10.50;82.51;98520.03;5065939;28;20067;-81
2023/11/06 02:15:56;;;;;;;11.20;1.98;;;10.50;99.90;;;10.45;83.11;98528.03;5068067;28;20044;-81
2023/11/06 02:18:26;;;;;;;8.02;1.75;;;10.50;99.90;;;10.49;83.29;98537.09;5066509;28;20426;-81
2023/11/06 02:20:55;;;;;;;6.05;1.60;;;10.50;99.90;;;10.57;83.16;98533.13;5076653;28;20095;-81
2023/11/06 02:23:27;;;;;;;12.05;1.75;;;10.50;99.90;;;10.63;82.90;98534.75;5064311;28;20052;-81
2023/11/06 02:25:55;;;;;;;9.38;1.45;;;10.60;99.90;;;10.63;82.33;98540.09;5079590;28;20041;-81
2023/11/06 02:28:23;;;;;;;8.38;1.60;;;10.60;99.90;;;10.61;82.15;98530.75;5070547;28;20068;-81
2023/11/06 02:30:52;;;;;;;9.02;1.63;;;10.60;99.90;;;10.61;82.12;98539.56;5069886;28;20080;-81
2023/11/06 02:33:20;;;;;;;9.07;2.28;;;10.60;99.90;;;10.64;82.15;98540.88;5051110;28;20045;-81
2023/11/06 02:35:48;;;;;;;7.78;1.52;;;10.60;99.90;;;10.61;82.40;98546.75;5039626;28;20120;-81
2023/11/06 02:38:15;;;;;;;7.00;1.77;;;10.60;99.90;;;10.67;82.56;98556.38;5083029;28;20032;-82
2023/11/06 02:40:45;;;;;;;11.75;1.55;;;10.60;99.90;;;10.63;82.23;98564.06;5081925;28;20028;-81
2023/11/06 02:43:13;;;;;;;7.25;1.52;;;10.60;99.90;;;10.65;82.49;98561.97;5068626;28;20036;-81
2023/11/06 02:45:41;;;;;;;6.05;1.77;;;10.60;99.90;;;10.70;82.40;98562.00;5050133;28;20048;-81
2023/11/06 02:48:08;;;;;;;7.65;1.52;;;10.60;99.90;;;10.72;82.21;98565.19;5062481;28;20087;-81
2023/11/06 02:50:35;;;;;;;5.90;1.70;;;10.60;99.90;;;10.74;82.00;98568.44;5081163;28;20063;-81
2023/11/06 02:53:03;;;;;;;10.57;1.60;;;10.60;99.90;;;10.66;81.82;98573.44;5080589;28;20138;-81
2023/11/06 02:55:32;;;;;;;7.15;1.33;;;10.60;99.90;;;10.67;81.55;98577.69;5068814;28;20056;-81
2023/11/06 02:58:01;;;;;;;7.70;1.73;;;10.60;99.90;;;10.66;81.56;98584.91;5081097;28;20033;-81
2023/11/06 03:00:28;;;;;;;8.77;2.00;;;10.60;99.90;;;10.66;81.53;98582.22;5082959;28;20466;-81
2023/11/06 03:02:55;;;;;;;8.07;2.15;;;10.60;99.90;;;10.67;81.18;98602.50;5079643;28;20086;-81
2023/11/06 03:05:23;;;;;;;6.32;1.88;;;10.60;99.90;;;10.57;81.16;98595.25;5080984;28;20098;-83
2023/11/06 03:07:51;;;;;;;8.07;1.70;;;10.50;99.90;;;10.50;80.95;98599.19;5080777;28;20045;-82
2023/11/06 03:10:19;;;;;;;6.45;1.40;;;10.50;99.90;;;10.51;81.69;98603.47;5059095;28;20041;-81
2023/11/06 03:12:47;;;;;;;9.63;1.75;;;10.50;99.90;;;10.50;81.16;98609.88;5082951;28;20044;-81
2023/11/06 03:15:16;;;;;;;6.28;1.60;;;10.50;99.90;;;10.44;80.84;98613.53;5083196;28;20052;-81
2023/11/06 03:17:43;;;;;;;10.95;2.17;;;10.50;99.90;;;10.44;81.05;98608.19;5049407;28;20049;-81
2023/11/06 03:20:12;;;;;;;12.13;1.80;;;10.50;99.90;;;10.48;81.29;98619.97;5065172;28;20052;-81
2023/11/06 03:22:39;;;;;;;7.35;1.63;;;10.50;99.90;;;10.46;80.86;98624.75;5075965;28;20040;-81
2023/11/06 03:25:09;;;;;;;7.63;1.50;;;10.50;99.90;;;10.47;80.93;98631.69;5084801;28;20453;-81
2023/11/06 03:27:36;;;;;;;9.23;1.52;;;10.50;99.90;;;10.47;81.06;98637.03;5084853;28;20455;-81
2023/11/06 03:30:05;;;;;;;9.27;1.85;;;10.50;99.90;;;10.48;81.12;98639.41;5062172;28;20041;-81
2023/11/06 03:32:34;;;;;;;9.30;1.90;;;10.50;99.90;;;10.41;80.24;98644.19;5056083;28;20044;-81
2023/11/06 03:35:03;;;;;;;7.97;1.40;;;10.40;99.90;;;10.37;80.84;98647.59;5083849;28;20044;-81
2023/11/06 03:37:30;;;;;;;8.60;2.05;;;10.40;99.90;;;10.43;81.01;98650.03;5084283;28;20458;-81
2023/11/06 03:39:58;;;;;;;5.53;1.35;;;10.40;99.90;;;10.45;80.85;98655.13;5085352;28;20450;-81
2023/11/06 03:42:26;;;;;;;6.43;1.30;;;10.40;99.90;;;10.47;80.71;98653.00;5086161;28;20060;-81
2023/11/06 03:44:53;;;;;;;5.93;1.60;;;10.50;99.90;;;10.52;80.63;98658.38;5043264;28;20045;-81
2023/11/06 03:47:22;;;;;;;7.05;1.50;;;10.50;99.90;;;10.55;80.63;98655.22;5065226;28;20040;-81
2023/11/06 03:49:51;;;;;;;8.18;1.63;;;10.50;99.90;;;10.57;80.58;98666.41;5057246;28;20075;-81
2023/11/06 03:52:19;;;;;;;7.53;2.28;;;10.50;99.90;;;10.49;80.27;98664.22;5093643;28;20040;-81
2023/11/06 03:54:46;;;;;;;6.05;1.50;;;10.50;99.90;;;10.42;80.66;98690.28;5060914;28;20041;-81
2023/11/06 03:57:14;;;;;;;6.28;1.45;;;10.50;99.90;;;10.50;80.69;98692.50;5075120;28;20097;-81
2023/11/06 03:59:42;;;;;;;10.90;2.15;;;10.50;99.90;;;10.54;80.57;98698.91;5078154;28;20499;-81
2023/11/06 04:02:09;;;;;;;7.18;1.60;;;10.50;99.90;;;10.48;80.04;98691.91;5069219;28;20044;-81
2023/11/06 04:04:37;;;;;;;10.02;2.05;;;10.50;99.90;;;10.48;80.23;98702.59;5076659;28;20060;-81
2023/11/06 04:07:06;;;;;;;6.63;1.40;;;10.50;99.90;;;10.53;80.08;98702.63;5078694;28;20044;-82
2023/11/06 04:09:34;;;;;;;8.68;2.05;;;10.50;99.90;;;10.43;79.84;98702.53;5060599;28;20049;-81
2023/11/06 04:12:02;;;;;;;8.93;1.60;;;10.50;99.90;;;10.41;80.57;98708.13;5063217;28;20432;-81
2023/11/06 04:14:30;;;;;;;10.07;1.80;;;10.40;99.90;;;10.44;80.56;98712.13;5066764;28;20450;-81
2023/11/06 04:16:57;;;;;;;8.18;1.52;;;10.40;99.90;;;10.45;79.69;98713.78;5071253;28;20045;-81
2023/11/06 04:19:25;;;;;;;9.40;2.00;;;10.50;99.90;;;10.47;79.95;98715.09;5069768;28;20102;-81
2023/11/06 04:21:53;;;;;;;8.77;1.90;;;10.50;99.90;;;10.46;79.52;98710.03;5080837;28;20086;-81
2023/11/06 04:24:21;;;;;;;11.00;2.08;;;10.50;99.90;;;10.45;79.54;98719.09;5059857;28;20067;-81
2023/11/06 04:26:49;;;;;;;6.40;1.70;;;10.50;99.90;;;10.45;79.42;98722.56;5066250;28;20564;-81
2023/11/06 04:29:16;;;;;;;6.93;1.60;;;10.40;99.90;;;10.39;78.91;98731.56;5080383;28;20108;-81
2023/11/06 04:31:44;;;;;;;8.27;1.92;;;10.40;99.90;;;10.44;79.18;98723.63;5079314;28;20507;-81
2023/11/06 04:34:11;;;;;;;7.05;1.38;;;10.40;99.90;;;10.48;79.48;98723.91;5078547;28;20040;-81
2023/11/06 04:36:39;;;;;;;6.70;1.65;;;10.40;99.90;;;10.46;78.94;98734.03;5048530;28;20048;-81
2023/11/06 04:39:09;;;;;;;6.80;1.58;;;10.40;99.90;;;10.49;78.90;98736.16;5047988;28;20528;-81
2023/11/06 04:41:39;;;;;;;11.57;2.00;;;10.40;99.90;;;10.52;78.79;98746.34;5074118;28;20053;-82
2023/11/06 04:44:07;;;;;;;7.72;1.80;;;10.40;99.90;;;10.49;78.26;98741.50;5063680;28;20497;-81
2023/11/06 04:46:35;;;;;;;7.78;1.70;;;10.40;99.90;;;10.50;78.66;98746.59;5064199;28;20052;-81
2023/11/06 04:49:02;;;;;;;10.15;1.70;;;10.40;99.90;;;10.52;78.56;98743.66;5059793;28;20095;-81
2023/11/06 04:51:30;;;;;;;7.15;1.40;;;10.40;99.90;;;10.53;78.45;98748.75;5063112;28;20396;-81
2023/11/06 04:53:58;;;;;;;7.88;1.55;;;10.40;99.90;;;10.55;77.90;98751.16;5081361;28;20044;-81
2023/11/06 04:56:25;;;;;;;7.55;1.60;;;10.40;99.90;;;10.50;78.02;98751.13;5084618;28;20048;-81
2023/11/06 04:58:54;;;;;;;7.75;1.88;;;10.40;99.90;;;10.50;77.90;98748.47;5083289;28;20053;-81
2023/11/06 05:01:21;;;;;;;6.43;1.73;;;10.40;99.90;;;10.49;77.88;98747.66;5079798;28;20056;-82
2023/11/06 05:03:49;;;;;;;8.52;1.65;;;10.40;99.90;;;10.49;77.42;98752.16;5062288;28;20140;-84
2023/11/06 05:06:16;;;;;;;4.47;1.15;;;10.30;99.90;;;10.47;77.71;98759.63;5063373;28;20055;-85
2023/11/06 05:08:45;;;;;;;8.10;1.73;;;10.30;99.90;;;10.46;77.33;98763.34;5040634;28;20098;-86
2023/11/06 05:11:13;;;;;;;6.80;1.58;;;10.30;99.90;;;10.47;77.94;98763.09;5077589;28;20415;-83
2023/11/06 05:13:41;;;;;;;8.40;1.40;;;10.40;99.90;;;10.46;77.72;98774.00;5083056;28;20060;-83
2023/11/06 05:16:10;;;;;;;9.30;1.75;;;10.30;99.90;;;10.35;77.39;98774.97;5080816;28;20036;-83
2023/11/06 05:18:38;;;;;;;8.07;2.42;;;10.30;99.90;;;10.42;78.01;98772.91;5057157;28;20051;-83
2023/11/06 05:21:06;;;;;;;11.05;2.13;;;10.30;99.90;;;10.50;77.93;98777.78;5076260;28;20040;-83
2023/11/06 05:23:34;;;;;;;8.45;1.30;;;10.40;99.90;;;10.54;78.00;98776.19;5080511;28;20045;-83
2023/11/06 05:26:04;;;;;;;7.70;1.67;;;10.40;99.90;;;10.50;77.64;98780.44;5052173;28;20049;-83
2023/11/06 05:28:32;;;;;;;7.18;1.40;;;10.40;99.90;;;10.50;77.51;98780.44;5082648;28;20132;-83
2023/11/06 05:30:59;;;;;;;6.00;1.40;;;10.40;99.90;;;10.54;77.63;98781.53;5073391;28;20045;-83
2023/11/06 05:33:28;;;;;;;12.95;2.08;;;10.30;99.90;;;10.48;77.01;98786.00;5059780;28;20041;-84
2023/11/06 05:35:55;;;;;;;12.18;1.80;;;10.30;99.90;;;10.44;76.54;98798.25;5064137;28;20042;-82
2023/11/06 05:38:23;;;;;;;7.43;1.45;;;10.30;99.90;;;10.43;77.03;98788.63;5084603;28;20071;-85
2023/11/06 05:40:51;;;;;;;6.32;1.90;;;10.30;99.90;;;10.42;76.54;98796.88;5063234;28;20052;-85
2023/11/06 05:43:19;;;;;;;6.53;1.63;;;10.30;99.90;;;10.44;76.79;98802.75;5038882;28;20057;-86
2023/11/06 05:45:47;;;;;;;8.43;1.80;;;10.30;99.90;;;10.43;76.84;98801.94;5071839;28;20381;-86
2023/11/06 05:48:14;;;;;;;12.93;2.10;;;10.30;99.90;;;10.45;76.85;98804.38;5066405;28;20052;-81
2023/11/06 05:50:44;;;;;;;9.48;1.88;;;10.30;99.90;;;10.34;76.66;98818.63;5028459;28;20108;-82
2023/11/06 05:53:11;;;;;;;9.05;1.70;;;10.30;99.90;;;10.30;77.20;98819.16;5046757;28;20136;-82
2023/11/06 05:55:40;;;;;;;9.07;1.90;;;10.30;99.90;;;10.34;77.36;98832.75;5063423;28;20057;-82
2023/11/06 05:58:09;;;;;;;13.07;2.25;;;10.30;99.90;;;10.36;77.55;98827.19;5064434;28;20080;-82
2023/11/06 06:00:38;;;;;;;14.07;2.72;;;10.30;99.90;;;10.32;77.41;98838.34;5081127;28;20045;-82
2023/11/06 06:03:05;;;;;;;16.60;3.00;;;10.30;99.90;;;10.36;77.46;98837.88;5070492;28;20052;-82
2023/11/06 06:05:32;;;;;;;11.90;2.08;;;10.30;99.90;;;10.29;77.17;98854.81;5078414;28;20044;-82
2023/11/06 06:08:02;;;;;;;9.98;1.98;;;10.30;99.90;;;10.31;77.27;98846.59;5078697;28;20045;-82
2023/11/06 06:10:29;;;;;;;14.52;2.13;;;10.40;99.90;;;10.29;77.47;98838.03;5068433;28;20037;-82
2023/11/06 06:12:57;;;;;;;14.60;2.25;;;10.40;99.90;;;10.34;77.71;98837.28;5074307;28;20049;-82
2023/11/06 06:15:25;;;;;;;17.15;2.70;;;10.40;99.90;;;10.38;77.77;98846.41;5064531;28;20045;-82
2023/11/06 06:17:53;;;;;;;16.15;2.80;;;10.40;99.90;;;10.34;77.60;98846.09;5047363;28;20047;-82
2023/11/06 06:20:21;;;;;;;11.75;2.38;;;10.40;99.90;;;10.32;77.40;98849.00;5040771;28;20420;-82
2023/11/06 06:22:50;;;;;;;14.88;2.97;;;10.40;99.90;;;10.21;77.24;98849.94;5032129;28;20041;-82
2023/11/06 06:25:20;;;;;;;14.07;2.67;;;10.30;99.90;;;10.28;77.41;98853.22;5065631;28;20053;-82
2023/11/06 06:27:49;;;;;;;16.55;2.80;;;10.40;99.90;;;10.26;77.24;98850.00;5050117;28;20072;-82
2023/11/06 06:30:16;;;;;;;13.80;2.30;;;10.30;99.90;;;10.20;77.21;98856.31;5082300;28;20419;-81
2023/11/06 06:32:44;;;;;;;13.55;2.58;;;10.20;99.90;;;10.28;77.60;98857.75;5069524;28;20049;-81
2023/11/06 06:35:12;;;;;;;16.15;2.95;;;10.30;99.90;;;10.31;77.42;98862.59;5085056;28;20127;-81
2023/11/06 06:37:39;;;;;;;17.10;2.70;;;10.30;99.90;;;10.25;77.25;98874.25;5084763;28;20051;-81
2023/11/06 06:40:10;;;;;;;15.38;2.72;;;10.30;99.90;;;10.31;77.57;98875.91;5084555;28;20503;-83
2023/11/06 06:42:39;;;;;;;21.35;2.60;;;10.40;99.90;;;10.30;77.19;98876.97;5068507;28;20044;-82
2023/11/06 06:45:08;;;;;;;14.23;2.42;;;10.40;99.90;;;10.36;77.21;98883.16;5090589;28;20044;-82
2023/11/06 06:47:35;;;;;;;15.30;3.33;;;10.40;99.90;;;10.35;77.38;98884.22;5083825;28;20067;-82
2023/11/06 06:50:04;;;;;;;13.70;2.92;;;10.40;99.90;;;10.38;77.45;98884.50;5087535;28;20048;-82
2023/11/06 06:52:32;;;;;;;17.20;2.35;;;10.40;99.90;;;10.43;77.43;98883.75;5090639;28;20071;-82
2023/11/06 06:55:01;;;;;;;15.45;2.90;;;10.40;99.90;;;10.36;76.87;98893.81;5088775;28;20079;-82
2023/11/06 06:57:29;;;;;;;19.88;2.83;;;10.40;99.90;;;10.32;77.05;98888.19;5088063;28;20087;-83
2023/11/06 06:59:58;;;;;;;14.23;2.67;;;10.40;99.90;;;10.41;77.09;98894.69;5091503;28;20045;-82
2023/11/06 07:02:26;;;;;;;15.13;2.28;;;10.40;99.90;;;10.43;76.64;98900.56;5084891;28;20052;-82
2023/11/06 07:04:54;;;;;;;16.63;3.25;;;10.40;99.90;;;10.37;76.45;98904.22;5089887;28;20040;-82
2023/11/06 07:07:22;;;;;;;11.60;2.55;;;10.40;99.90;;;10.35;76.80;98903.69;5090143;28;20507;-82
2023/11/06 07:09:50;;;;;;;18.42;2.90;;;10.40;99.90;;;10.37;76.79;98909.56;5089856;28;20041;-82
2023/11/06 07:12:19;;;;;;;14.55;2.75;;;10.40;99.90;;;10.40;76.91;98913.59;5089853;28;20051;-82
2023/11/06 07:14:47;;;;;;;17.60;3.78;;;10.40;99.90;;;10.39;76.26;98909.28;5090889;28;20040;-82
2023/11/06 07:17:17;;;;;;;15.80;2.90;;;10.40;99.90;;;10.46;76.84;98917.94;5101518;28;20575;-82
2023/11/06 07:19:44;;;;;;;21.83;3.40;;;10.40;99.90;;;10.44;76.61;98917.34;5072123;28;20040;-82
2023/11/06 07:22:13;;;;;;;12.48;2.58;;;10.40;99.90;;;10.42;76.58;98922.94;5070366;28;20120;-82
2023/11/06 07:24:40;;;;;;;16.30;3.00;;;10.50;99.90;;;10.50;77.00;98935.03;5101617;28;20482;-82
2023/11/06 07:27:08;;;;;;;21.98;2.80;;;10.50;99.90;;;10.56;76.95;98936.69;5102493;28;20138;-82
2023/11/06 07:29:36;;;;;;;14.98;2.60;;;10.50;99.90;;;10.63;76.91;98934.63;5089301;28;20048;-82
2023/11/06 07:32:05;;;;;;;19.42;3.17;;;10.60;99.90;;;10.60;76.05;98943.16;5073497;28;20064;-82
2023/11/06 07:34:34;;;;;;;14.05;2.67;;;10.60;99.90;;;10.58;75.18;98943.38;5064303;28;20426;-82
2023/11/06 07:37:02;;;;;;;18.83;2.90;;;10.70;99.90;;;10.62;76.00;98942.91;5086905;28;20131;-82
2023/11/06 07:39:31;;;;;;;17.83;2.80;;;10.60;99.90;;;10.68;76.32;98949.88;5087633;28;20059;-83
2023/11/06 07:41:58;;;;;;;19.17;3.05;;;10.70;99.90;;;10.60;74.89;98953.00;5069091;28;20052;-81
2023/11/06 07:44:26;;;;;;;14.73;2.90;;;10.60;99.90;;;10.63;75.65;98952.50;5070369;28;20048;-82
2023/11/06 07:46:53;;;;;;;12.38;2.55;;;10.70;99.90;;;10.61;75.36;98958.09;5086452;28;20397;-82
2023/11/06 07:49:21;;;;;;;12.88;3.15;;;10.70;99.90;;;10.66;75.87;98960.00;5055726;28;20063;-82
2023/11/06 07:51:50;;;;;;;18.67;2.85;;;10.70;99.90;;;10.60;74.97;98959.16;5107206;28;20048;-82
2023/11/06 07:54:18;;;;;;;17.52;2.72;;;10.80;99.90;;;10.58;75.07;98963.91;5094580;28;20075;-82
2023/11/06 07:56:47;;;;;;;17.63;2.40;;;10.70;99.90;;;10.56;75.25;98960.69;5083789;28;20049;-82
2023/11/06 07:59:15;;;;;;;11.43;2.58;;;10.60;99.90;;;10.61;75.41;98966.09;5068574;28;20504;-82
2023/11/06 08:01:43;;;;;;;14.00;2.70;;;10.70;99.90;;;10.58;74.88;98966.56;5062810;28;20574;-82
2023/11/06 08:04:12;;;;;;;14.63;2.80;;;10.70;99.90;;;10.63;74.94;98977.28;5087794;28;20070;-81
2023/11/06 08:06:40;;;;;;;15.80;2.65;;;10.70;99.90;;;10.62;74.50;98974.88;5083430;28;20071;-82
2023/11/06 08:09:10;;;;;;;12.95;2.58;;;10.70;99.90;;;10.54;74.17;98971.63;5068876;28;20049;-82
2023/11/06 08:11:39;;;;;;;17.60;3.30;;;10.70;99.90;;;10.56;75.12;98979.34;5069190;28;20045;-82
2023/11/06 08:14:06;;;;;;;13.77;2.40;;;10.70;99.90;;;10.60;74.63;98979.66;5076130;28;20063;-81
2023/11/06 08:16:35;;;;;;;14.93;2.17;;;10.70;99.90;;;10.62;74.89;98978.34;5087922;28;20055;-81
2023/11/06 08:19:04;;;;;;;13.02;2.83;;;10.70;99.90;;;10.63;74.36;98979.16;5076529;28;20060;-82
2023/11/06 08:21:34;;;;;;;15.82;2.58;;;10.80;99.90;;;10.66;74.07;98998.13;5069331;28;20078;-82
2023/11/06 08:24:03;;;;;;;;;;;10.70;99.90;;;10.67;74.19;98991.75;5079312;28;20119;-82
2023/11/06 08:26:32;;;;;;;14.18;2.45;;;10.80;99.90;;;10.73;74.67;98993.41;5088069;28;19955;-81
2023/11/06 08:29:00;;;;;;;13.32;2.22;;;10.80;99.90;;;10.75;73.89;98999.31;5071263;28;20055;-81
2023/11/06 08:31:28;;;;;;;11.95;2.53;;;10.90;99.90;;;10.74;74.21;99003.06;5083210;28;20079;-81
2023/11/06 08:33:57;;;;;;;15.18;2.30;;;10.90;99.90;;;10.78;73.86;99003.34;5069397;28;20103;-81
2023/11/06 08:36:26;;;;;;;14.70;2.40;;;10.90;99.90;;;10.84;73.95;98999.69;5071329;28;20036;-82
2023/11/06 08:38:54;;;;;;;23.85;3.15;;;10.90;99.90;;;10.83;73.98;99014.06;5089085;28;20469;-81
2023/11/06 08:41:21;;;;;;;12.95;2.28;;;11.00;99.90;;;10.80;73.34;99010.03;5077717;28;20054;-81
2023/11/06 08:43:51;;;;;;;13.05;2.80;;;11.00;99.90;;;10.86;73.94;99018.09;5071035;28;20507;-82
2023/11/06 08:46:18;;;;;;;15.63;2.30;;;10.90;99.90;;;10.90;73.50;99021.91;5105814;28;20098;-82
2023/11/06 08:48:46;;;;;;;14.95;2.42;;;11.00;99.90;;;10.92;73.66;99025.09;5087356;28;20040;-82
2023/11/06 08:51:14;;;;;;;12.23;2.60;;;11.00;99.90;;;10.97;74.17;99015.31;5087619;28;20045;-82
2023/11/06 08:53:44;;;;;;;14.48;2.28;;;11.00;99.90;;;10.93;72.46;99013.38;5070654;28;20057;-82
2023/11/06 08:56:20;;;;;;;12.07;2.45;;;11.00;99.90;;;10.89;71.72;99010.44;5087767;28;20057;-82
2023/11/06 08:58:49;;;;;;;12.48;2.08;;;11.00;99.90;;;10.87;72.49;99011.72;5088403;28;20048;-82
2023/11/06 09:01:17;;;;;;;10.88;1.92;;;11.00;99.90;;;10.83;72.58;99017.56;5078651;28;20033;-81
2023/11/06 09:03:44;;;;;;;14.20;1.98;;;11.00;99.90;;;10.81;71.97;99029.53;5082474;28;20033;-81
2023/11/06 09:06:12;;;;;;;11.55;2.55;;;11.00;99.90;;;10.86;72.97;99026.91;5076762;28;20491;-81
2023/11/06 09:08:39;;;;;;;15.20;2.22;;;11.00;99.90;;;10.90;72.77;99021.91;5074946;28;20048;-81
2023/11/06 09:11:09;;;;;;;12.07;2.05;;;11.10;99.90;;;10.94;71.83;99015.00;5071766;28;20041;-81
2023/11/06 09:13:36;;;;;;;13.18;2.53;;;11.10;99.90;;;10.97;71.67;99023.31;5089283;28;20105;-81
2023/11/06 09:16:09;;;;;;;11.00;2.35;;;11.10;99.90;;;11.05;72.20;99030.06;5087980;28;20037;-81
2023/11/06 09:18:38;;;;;;;15.88;2.38;;;11.20;99.90;;;11.04;71.25;99029.28;5088152;28;20044;-81
2023/11/06 09:21:13;;;;;;;14.52;2.45;;;11.20;99.90;;;11.09;72.41;99025.84;5086011;28;20044;-81
2023/11/06 09:23:41;;;;;;;10.70;2.03;;;11.20;99.90;;;11.11;70.65;99026.41;5080806;28;20052;-82
2023/11/06 09:26:10;;;;;;;14.23;2.38;;;11.30;99.90;;;11.11;71.07;99026.41;5076137;28;20044;-82
2023/11/06 09:28:38;;;;;;;11.02;2.38;;;11.30;99.90;;;11.14;71.11;99023.25;5070330;28;20096;-81
2023/11/06 09:31:07;;;;;;;15.13;2.53;;;11.30;99.90;;;11.16;70.88;99029.13;5075578;28;20051;-83
2023/11/06 09:33:35;;;;;;;11.18;2.03;;;11.40;99.90;;;11.16;71.63;99026.44;5088711;28;20064;-83
2023/11/06 09:36:07;;;;;;;11.80;1.77;;;11.40;99.90;;;11.28;71.68;99027.13;5063976;28;20446;-84
2023/11/06 09:38:35;;;;;;;19.08;2.60;;;11.50;99.90;;;11.30;70.13;99032.22;5063918;28;20040;-84
2023/11/06 09:41:04;;;;;;;15.13;2.50;;;11.50;99.90;;;11.32;69.86;99040.75;5063945;28;20060;-83
2023/11/06 09:43:32;;;;;;;11.00;2.25;;;11.60;99.90;;;11.38;69.12;99036.31;5066402;28;20049;-83
2023/11/06 09:46:00;;;;;;;14.88;2.50;;;11.60;99.90;;;11.42;69.53;99034.72;5059973;28;20055;-84
2023/11/06 09:48:32;;;;;;;12.00;2.40;;;11.60;99.90;;;11.42;68.93;99027.53;5066235;28;20052;-84
2023/11/06 09:51:03;;;;;;;12.35;2.35;;;11.60;99.90;;;11.44;69.58;99043.28;5080460;28;20672;-84
2023/11/06 09:53:32;;;;;;;12.73;2.28;;;11.60;99.90;;;11.45;68.28;99034.22;5057228;28;20049;-84
2023/11/06 09:56:00;;;;;;;11.77;1.90;;;11.70;99.90;;;11.51;69.54;99031.34;5056805;28;20120;-84
2023/11/06 09:58:27;;;;;;;11.95;2.50;;;11.80;99.90;;;11.53;68.89;99034.56;5073136;28;20056;-84
2023/11/06 10:00:55;;;;;;;7.53;2.00;;;11.70;99.90;;;11.56;68.83;99033.25;5063396;28;20067;-84
2023/11/06 10:03:22;;;;;;;14.02;2.15;;;11.80;99.90;;;11.58;68.52;99036.50;5068601;28;20044;-84
2023/11/06 10:05:51;;;;;;;12.50;2.75;;;11.80;99.90;;;11.58;68.54;99034.63;5077909;28;20046;-84
2023/11/06 10:08:29;;;;;;;13.93;1.80;;;11.80;99.90;;;11.60;67.83;99045.03;5049690;28;20048;-84
2023/11/06 10:11:00;;;;;;;10.38;1.90;;;11.80;99.90;;;11.64;68.00;99037.34;5041333;28;20056;-84
2023/11/06 10:13:29;;;;;;;14.93;2.50;;;11.90;99.90;;;11.69;68.42;99046.19;5063835;28;20518;-83
2023/11/06 10:15:58;;;;;;;13.43;2.22;;;12.00;99.90;;;11.72;68.00;99042.22;5076796;28;20064;-84
2023/11/06 10:18:27;;;;;;;9.63;2.35;;;11.90;99.90;;;11.75;68.41;99045.19;5077099;28;20495;-84